sensor_id;sensor_type;location;lat;lon;timestamp;pressure;altitude;pressure_sealevel;temperature;humidity
20037;BME280;10179;42.640;23.312;2023-12-07T00:00:15;93317.19;;;10.04;58.58
20037;BME280;10179;42.640;23.312;2023-12-07T00:02:40;93316.03;;;10.00;58.49
20037;BME280;10179;42.640;23.312;2023-12-07T00:05:06;93284.59;;;9.76;58.59
20037;BME280;10179;42.640;23.312;2023-12-07T00:07:32;93198.16;;;9.11;58.67
20037;BME280;10179;42.640;23.312;2023-12-07T00:09:57;93217.53;;;9.33;58.69
20037;BME280;10179;42.640;23.312;2023-12-07T00:12:22;93339.28;;;9.96;58.94
20037;BME280;10179;42.640;23.312;2023-12-07T00:14:48;93318.78;;;10.05;58.96
20037;BME280;10179;42.640;23.312;2023-12-07T00:17:13;93287.31;;;9.82;58.64
20037;BME280;10179;42.640;23.312;2023-12-07T00:19:39;93299.06;;;9.91;58.49
20037;BME280;10179;42.640;23.312;2023-12-07T00:22:05;93221.78;;;9.35;58.39
20037;BME280;10179;42.640;23.312;2023-12-07T00:24:30;93270.31;;;9.61;58.48
20037;BME280;10179;42.640;23.312;2023-12-07T00:26:56;93312.84;;;9.86;58.49
20037;BME280;10179;42.640;23.312;2023-12-07T00:29:21;93271.00;;;9.56;58.74
20037;BME280;10179;42.640;23.312;2023-12-07T00:31:47;93303.25;;;9.92;58.92
20037;BME280;10179;42.640;23.312;2023-12-07T00:34:13;93306.81;;;9.97;58.51
20037;BME280;10179;42.640;23.312;2023-12-07T00:36:39;93232.94;;;9.53;58.24
20037;BME280;10179;42.640;23.312;2023-12-07T00:39:06;93326.84;;;10.03;58.35
20037;BME280;10179;42.640;23.312;2023-12-07T00:41:32;93254.25;;;9.57;58.41
20037;BME280;10179;42.640;23.312;2023-12-07T00:43:57;93288.78;;;9.77;58.49
20037;BME280;10179;42.640;23.312;2023-12-07T00:46:22;93321.28;;;10.00;58.61
20037;BME280;10179;42.640;23.312;2023-12-07T00:48:49;93324.03;;;10.05;58.75
20037;BME280;10179;42.640;23.312;2023-12-07T00:51:14;93276.72;;;9.76;58.44
20037;BME280;10179;42.640;23.312;2023-12-07T00:53:41;93299.38;;;9.83;58.03
20037;BME280;10179;42.640;23.312;2023-12-07T00:56:07;93316.72;;;9.84;58.51
20037;BME280;10179;42.640;23.312;2023-12-07T00:58:32;93265.75;;;9.68;58.70
20037;BME280;10179;42.640;23.312;2023-12-07T01:00:57;93318.66;;;10.12;58.86
20037;BME280;10179;42.640;23.312;2023-12-07T01:03:23;93272.69;;;9.86;58.27
20037;BME280;10179;42.640;23.312;2023-12-07T01:05:48;93231.69;;;9.56;58.33
20037;BME280;10179;42.640;23.312;2023-12-07T01:08:13;93304.53;;;10.01;58.39
20037;BME280;10179;42.640;23.312;2023-12-07T01:10:39;93313.66;;;9.98;58.56
20037;BME280;10179;42.640;23.312;2023-12-07T01:13:04;93308.31;;;9.93;58.44
20037;BME280;10179;42.640;23.312;2023-12-07T01:15:30;93313.31;;;9.95;58.64
20037;BME280;10179;42.640;23.312;2023-12-07T01:17:56;93306.47;;;9.94;58.83
20037;BME280;10179;42.640;23.312;2023-12-07T01:20:21;93263.38;;;9.66;59.13
20037;BME280;10179;42.640;23.312;2023-12-07T01:22:46;93261.53;;;9.67;58.54
20037;BME280;10179;42.640;23.312;2023-12-07T01:25:12;93317.06;;;9.99;58.54
20037;BME280;10179;42.640;23.312;2023-12-07T01:27:38;93194.75;;;9.22;58.69
20037;BME280;10179;42.640;23.312;2023-12-07T01:30:04;93203.53;;;9.28;58.80
20037;BME280;10179;42.640;23.312;2023-12-07T01:32:30;93300.78;;;9.97;59.06
20037;BME280;10179;42.640;23.312;2023-12-07T01:34:55;93286.94;;;9.90;58.87
20037;BME280;10179;42.640;23.312;2023-12-07T01:37:21;93227.81;;;9.47;59.20
20037;BME280;10179;42.640;23.312;2023-12-07T01:39:46;93235.56;;;9.65;58.80
20037;BME280;10179;42.640;23.312;2023-12-07T01:42:12;93307.38;;;10.11;58.75
20037;BME280;10179;42.640;23.312;2023-12-07T01:44:38;93321.94;;;10.07;58.62
20037;BME280;10179;42.640;23.312;2023-12-07T01:47:04;93301.91;;;10.01;58.51
20037;BME280;10179;42.640;23.312;2023-12-07T01:49:31;93210.16;;;9.42;58.58
20037;BME280;10179;42.640;23.312;2023-12-07T01:51:57;93300.78;;;9.97;58.58
20037;BME280;10179;42.640;23.312;2023-12-07T01:54:23;93301.69;;;9.91;58.58
20037;BME280;10179;42.640;23.312;2023-12-07T01:56:50;93221.44;;;9.43;58.88
20037;BME280;10179;42.640;23.312;2023-12-07T01:59:15;93297.13;;;9.98;59.05
20037;BME280;10179;42.640;23.312;2023-12-07T02:01:41;93300.88;;;10.02;58.59
20037;BME280;10179;42.640;23.312;2023-12-07T02:04:06;93262.47;;;9.72;58.74
20037;BME280;10179;42.640;23.312;2023-12-07T02:06:32;93268.84;;;9.76;58.55
20037;BME280;10179;42.640;23.312;2023-12-07T02:08:57;93307.59;;;9.98;58.61
20037;BME280;10179;42.640;23.312;2023-12-07T02:11:23;93228.47;;;9.54;58.70
20037;BME280;10179;42.640;23.312;2023-12-07T02:13:48;93231.91;;;9.43;58.87
20037;BME280;10179;42.640;23.312;2023-12-07T02:16:18;93294.50;;;9.98;58.99
20037;BME280;10179;42.640;23.312;2023-12-07T02:21:30;93291.97;;;10.26;58.31
20037;BME280;10179;42.640;23.312;2023-12-07T02:23:59;93232.38;;;9.63;58.38
20037;BME280;10179;42.640;23.312;2023-12-07T02:26:50;93290.47;;;10.07;58.75
20037;BME280;10179;42.640;23.312;2023-12-07T02:29:16;93286.63;;;9.98;58.76
20037;BME280;10179;42.640;23.312;2023-12-07T02:31:41;93291.63;;;9.99;58.79
20037;BME280;10179;42.640;23.312;2023-12-07T02:34:07;93269.06;;;9.87;58.55
20037;BME280;10179;42.640;23.312;2023-12-07T02:36:33;93206.97;;;9.52;58.72
20037;BME280;10179;42.640;23.312;2023-12-07T02:39:00;93215.03;;;9.50;58.90
20037;BME280;10179;42.640;23.312;2023-12-07T02:41:30;93142.81;;;9.19;58.49
20037;BME280;10179;42.640;23.312;2023-12-07T02:43:57;93283.19;;;10.09;58.21
20037;BME280;10179;42.640;23.312;2023-12-07T02:46:24;93284.22;;;10.08;58.09
20037;BME280;10179;42.640;23.312;2023-12-07T02:48:49;93100.69;;;8.86;58.28
20037;BME280;10179;42.640;23.312;2023-12-07T02:51:15;93281.13;;;9.99;58.13
20037;BME280;10179;42.640;23.312;2023-12-07T02:53:40;93281.81;;;9.95;58.69
20037;BME280;10179;42.640;23.312;2023-12-07T02:56:06;93278.63;;;9.93;58.44
20037;BME280;10179;42.640;23.312;2023-12-07T02:58:31;93256.06;;;9.80;58.88
20037;BME280;10179;42.640;23.312;2023-12-07T03:00:56;93282.25;;;10.03;58.69
20037;BME280;10179;42.640;23.312;2023-12-07T03:03:22;93273.59;;;10.03;58.48
20037;BME280;10179;42.640;23.312;2023-12-07T03:05:47;93003.69;;;8.22;58.46
20037;BME280;10179;42.640;23.312;2023-12-07T03:08:13;93257.66;;;9.81;58.63
20037;BME280;10179;42.640;23.312;2023-12-07T03:10:38;93227.81;;;9.47;58.63
20037;BME280;10179;42.640;23.312;2023-12-07T03:13:03;93141.00;;;8.84;58.94
20037;BME280;10179;42.640;23.312;2023-12-07T03:15:29;93275.44;;;9.67;59.05
20037;BME280;10179;42.640;23.312;2023-12-07T03:17:54;93292.31;;;9.71;59.31
20037;BME280;10179;42.640;23.312;2023-12-07T03:20:20;93216.66;;;9.16;59.49
20037;BME280;10179;42.640;23.312;2023-12-07T03:22:45;93301.81;;;9.72;59.27
20037;BME280;10179;42.640;23.312;2023-12-07T03:25:10;93307.50;;;9.69;59.36
20037;BME280;10179;42.640;23.312;2023-12-07T03:27:36;93290.25;;;9.50;59.50
20037;BME280;10179;42.640;23.312;2023-12-07T03:30:01;93310.78;;;9.65;59.79
20037;BME280;10179;42.640;23.312;2023-12-07T03:32:27;93316.59;;;9.67;59.92
20037;BME280;10179;42.640;23.312;2023-12-07T03:34:52;93308.59;;;9.62;59.86
20037;BME280;10179;42.640;23.312;2023-12-07T03:37:18;93294.94;;;9.60;60.33
20037;BME280;10179;42.640;23.312;2023-12-07T03:39:43;93277.53;;;9.65;60.36
20037;BME280;10179;42.640;23.312;2023-12-07T03:42:08;93313.31;;;9.95;59.80
20037;BME280;10179;42.640;23.312;2023-12-07T03:44:34;93216.41;;;9.29;59.43
20037;BME280;10179;42.640;23.312;2023-12-07T03:46:59;93313.75;;;9.92;59.32
20037;BME280;10179;42.640;23.312;2023-12-07T03:49:25;93211.84;;;9.25;59.16
20037;BME280;10179;42.640;23.312;2023-12-07T03:51:50;93305.88;;;9.68;58.88
20037;BME280;10179;42.640;23.312;2023-12-07T03:54:15;93275.22;;;9.57;58.96
20037;BME280;10179;42.640;23.312;2023-12-07T03:56:41;93304.53;;;9.77;58.95
20037;BME280;10179;42.640;23.312;2023-12-07T03:59:06;93306.00;;;9.73;59.13
20037;BME280;10179;42.640;23.312;2023-12-07T04:01:32;93195.56;;;8.99;59.43
20037;BME280;10179;42.640;23.312;2023-12-07T04:03:58;93219.47;;;9.26;59.17
20037;BME280;10179;42.640;23.312;2023-12-07T04:06:24;93302.13;;;9.88;58.94
20037;BME280;10179;42.640;23.312;2023-12-07T04:08:50;93188.63;;;9.17;58.92
20037;BME280;10179;42.640;23.312;2023-12-07T04:11:16;93263.59;;;9.53;58.69
20037;BME280;10179;42.640;23.312;2023-12-07T04:13:42;93292.66;;;9.63;58.98
20037;BME280;10179;42.640;23.312;2023-12-07T04:16:09;93300.31;;;9.88;58.97
20037;BME280;10179;42.640;23.312;2023-12-07T04:18:34;93309.75;;;9.89;59.08
20037;BME280;10179;42.640;23.312;2023-12-07T04:21:00;93256.88;;;9.57;58.83
20037;BME280;10179;42.640;23.312;2023-12-07T04:23:25;93316.97;;;9.94;59.18
20037;BME280;10179;42.640;23.312;2023-12-07T04:25:51;93318.41;;;9.90;58.77
20037;BME280;10179;42.640;23.312;2023-12-07T04:28:16;92965.38;;;7.62;58.45
20037;BME280;10179;42.640;23.312;2023-12-07T04:30:42;93335.09;;;9.95;58.44
20037;BME280;10179;42.640;23.312;2023-12-07T04:33:07;93332.91;;;9.92;58.66
20037;BME280;10179;42.640;23.312;2023-12-07T04:35:34;93332.34;;;9.90;58.66
20037;BME280;10179;42.640;23.312;2023-12-07T04:37:59;93324.13;;;9.75;58.76
20037;BME280;10179;42.640;23.312;2023-12-07T04:40:25;93352.06;;;9.93;58.84
20037;BME280;10179;42.640;23.312;2023-12-07T04:42:51;93317.53;;;9.84;58.91
20037;BME280;10179;42.640;23.312;2023-12-07T04:45:16;93335.06;;;10.07;58.55
20037;BME280;10179;42.640;23.312;2023-12-07T04:47:41;93288.22;;;9.75;58.24
20037;BME280;10179;42.640;23.312;2023-12-07T04:50:07;93324.59;;;9.95;58.18
20037;BME280;10179;42.640;23.312;2023-12-07T04:52:33;93340.66;;;9.99;58.08
20037;BME280;10179;42.640;23.312;2023-12-07T04:54:59;93343.75;;;9.96;58.19
20037;BME280;10179;42.640;23.312;2023-12-07T04:57:24;93336.91;;;9.95;58.24
20037;BME280;10179;42.640;23.312;2023-12-07T04:59:50;93225.84;;;9.19;58.38
20037;BME280;10179;42.640;23.312;2023-12-07T05:02:17;93342.41;;;9.93;58.35
20037;BME280;10179;42.640;23.312;2023-12-07T05:04:43;93278.19;;;9.49;58.44
20037;BME280;10179;42.640;23.312;2023-12-07T05:07:08;93278.19;;;9.61;58.81
20037;BME280;10179;42.640;23.312;2023-12-07T05:09:34;93284.00;;;9.63;58.05
20037;BME280;10179;42.640;23.312;2023-12-07T05:12:00;93346.59;;;10.06;57.83
20037;BME280;10179;42.640;23.312;2023-12-07T05:14:25;93337.59;;;9.90;57.96
20037;BME280;10179;42.640;23.312;2023-12-07T05:16:51;93331.88;;;9.82;57.87
20037;BME280;10179;42.640;23.312;2023-12-07T05:19:21;93343.50;;;9.86;57.90
20037;BME280;10179;42.640;23.312;2023-12-07T05:21:47;93357.22;;;9.88;57.99
20037;BME280;10179;42.640;23.312;2023-12-07T05:24:13;93354.00;;;9.86;58.04
20037;BME280;10179;42.640;23.312;2023-12-07T05:26:41;93303.50;;;9.55;58.31
20037;BME280;10179;42.640;23.312;2023-12-07T05:29:06;93360.88;;;9.87;58.30
20037;BME280;10179;42.640;23.312;2023-12-07T05:31:31;93300.88;;;9.55;58.50
20037;BME280;10179;42.640;23.312;2023-12-07T05:33:57;93215.94;;;9.09;58.15
20037;BME280;10179;42.640;23.312;2023-12-07T05:36:22;93366.44;;;10.02;57.94
20037;BME280;10179;42.640;23.312;2023-12-07T05:38:48;93275.31;;;9.39;57.88
20037;BME280;10179;42.640;23.312;2023-12-07T05:41:13;93377.41;;;9.99;58.10
20037;BME280;10179;42.640;23.312;2023-12-07T05:43:43;93373.75;;;10.00;58.12
20037;BME280;10179;42.640;23.312;2023-12-07T05:46:08;93381.06;;;9.98;58.13
20037;BME280;10179;42.640;23.312;2023-12-07T05:48:34;93372.94;;;9.99;58.21
20037;BME280;10179;42.640;23.312;2023-12-07T05:51:01;93376.16;;;10.01;58.27
20037;BME280;10179;42.640;23.312;2023-12-07T05:53:27;93349.91;;;9.90;58.19
20037;BME280;10179;42.640;23.312;2023-12-07T05:55:52;92993.81;;;7.70;58.39
20037;BME280;10179;42.640;23.312;2023-12-07T05:58:17;93359.38;;;10.14;58.33
20037;BME280;10179;42.640;23.312;2023-12-07T06:00:43;93307.38;;;9.88;58.05
20037;BME280;10179;42.640;23.312;2023-12-07T06:03:09;93384.06;;;10.37;57.82
20037;BME280;10179;42.640;23.312;2023-12-07T06:05:37;93324.94;;;9.99;57.54
20037;BME280;10179;42.640;23.312;2023-12-07T06:08:03;93381.72;;;10.52;57.21
20037;BME280;10179;42.640;23.312;2023-12-07T06:10:29;93292.41;;;10.00;56.64
20037;BME280;10179;42.640;23.312;2023-12-07T06:12:55;93371.69;;;10.49;56.67
20037;BME280;10179;42.640;23.312;2023-12-07T06:15:22;93355.06;;;10.32;56.86
20037;BME280;10179;42.640;23.312;2023-12-07T06:17:47;93174.84;;;9.21;56.40
20037;BME280;10179;42.640;23.312;2023-12-07T06:20:13;93276.69;;;9.88;56.50
20037;BME280;10179;42.640;23.312;2023-12-07T06:22:40;93297.13;;;9.98;56.28
20037;BME280;10179;42.640;23.312;2023-12-07T06:25:06;93372.28;;;10.51;56.23
20037;BME280;10179;42.640;23.312;2023-12-07T06:27:34;93399.28;;;10.63;56.39
20037;BME280;10179;42.640;23.312;2023-12-07T06:29:59;93396.53;;;10.70;56.34
20037;BME280;10179;42.640;23.312;2023-12-07T06:32:25;93394.59;;;10.77;56.16
20037;BME280;10179;42.640;23.312;2023-12-07T06:34:51;93377.28;;;10.64;55.51
20037;BME280;10179;42.640;23.312;2023-12-07T06:37:17;93387.41;;;10.72;55.61
20037;BME280;10179;42.640;23.312;2023-12-07T06:39:43;93290.59;;;10.12;55.44
20037;BME280;10179;42.640;23.312;2023-12-07T06:42:09;93287.38;;;10.10;55.28
20037;BME280;10179;42.640;23.312;2023-12-07T06:44:35;93404.06;;;10.90;55.36
20037;BME280;10179;42.640;23.312;2023-12-07T06:47:00;93293.09;;;10.31;55.23
20037;BME280;10179;42.640;23.312;2023-12-07T06:49:28;93410.63;;;11.04;54.79
20037;BME280;10179;42.640;23.312;2023-12-07T06:51:53;93394.16;;;11.09;54.94
20037;BME280;10179;42.640;23.312;2023-12-07T06:54:19;93400.31;;;11.14;54.73
20037;BME280;10179;42.640;23.312;2023-12-07T06:56:44;93408.28;;;11.19;55.01
20037;BME280;10179;42.640;23.312;2023-12-07T06:59:10;93389.81;;;11.14;54.86
20037;BME280;10179;42.640;23.312;2023-12-07T07:01:36;93386.13;;;11.15;54.71
20037;BME280;10179;42.640;23.312;2023-12-07T07:04:02;93401.50;;;11.35;54.62
20037;BME280;10179;42.640;23.312;2023-12-07T07:06:28;93403.41;;;11.40;54.50
20037;BME280;10179;42.640;23.312;2023-12-07T07:08:53;93405.34;;;11.44;54.35
20037;BME280;10179;42.640;23.312;2023-12-07T07:11:18;93351.09;;;11.10;54.36
20037;BME280;10179;42.640;23.312;2023-12-07T07:13:44;93398.63;;;11.37;54.23
20037;BME280;10179;42.640;23.312;2023-12-07T07:16:09;93379.56;;;11.30;54.25
20037;BME280;10179;42.640;23.312;2023-12-07T07:18:37;93366.88;;;11.27;54.07
20037;BME280;10179;42.640;23.312;2023-12-07T07:21:03;93417.66;;;11.56;54.08
20037;BME280;10179;42.640;23.312;2023-12-07T07:23:29;93414.78;;;11.57;54.03
20037;BME280;10179;42.640;23.312;2023-12-07T07:25:54;93327.00;;;11.01;53.76
20037;BME280;10179;42.640;23.312;2023-12-07T07:28:20;93427.50;;;11.49;53.80
20037;BME280;10179;42.640;23.312;2023-12-07T07:30:45;93424.16;;;11.53;53.56
20037;BME280;10179;42.640;23.312;2023-12-07T07:33:11;93415.72;;;11.51;53.68
20037;BME280;10179;42.640;23.312;2023-12-07T07:35:36;93365.59;;;11.12;53.78
20037;BME280;10179;42.640;23.312;2023-12-07T07:38:01;93418.59;;;11.50;53.64
20037;BME280;10179;42.640;23.312;2023-12-07T07:40:27;93421.78;;;11.52;53.68
20037;BME280;10179;42.640;23.312;2023-12-07T07:42:52;93199.22;;;10.09;53.74
20037;BME280;10179;42.640;23.312;2023-12-07T07:45:18;93429.91;;;11.50;54.00
20037;BME280;10179;42.640;23.312;2023-12-07T07:47:44;93387.25;;;11.19;53.87
20037;BME280;10179;42.640;23.312;2023-12-07T07:50:09;93435.63;;;11.47;53.53
20037;BME280;10179;42.640;23.312;2023-12-07T07:52:36;93434.50;;;11.43;53.11
20037;BME280;10179;42.640;23.312;2023-12-07T07:55:03;93427.00;;;11.35;53.11
20037;BME280;10179;42.640;23.312;2023-12-07T07:57:30;93438.13;;;11.25;53.60
20037;BME280;10179;42.640;23.312;2023-12-07T07:59:56;93441.91;;;11.17;53.64
20037;BME280;10179;42.640;23.312;2023-12-07T08:02:22;93397.25;;;10.65;54.02
20037;BME280;10179;42.640;23.312;2023-12-07T08:04:47;93373.78;;;10.47;54.54
20037;BME280;10179;42.640;23.312;2023-12-07T08:07:12;93448.81;;;10.95;54.39
20037;BME280;10179;42.640;23.312;2023-12-07T08:09:38;93456.50;;;10.85;54.49
20037;BME280;10179;42.640;23.312;2023-12-07T08:12:03;93451.13;;;10.80;54.65
20037;BME280;10179;42.640;23.312;2023-12-07T08:14:30;93428.53;;;10.55;54.55
20037;BME280;10179;42.640;23.312;2023-12-07T08:16:55;93439.03;;;10.55;54.30
20037;BME280;10179;42.640;23.312;2023-12-07T08:19:21;93415.22;;;10.33;54.57
20037;BME280;10179;42.640;23.312;2023-12-07T08:21:46;93388.56;;;10.06;54.72
20037;BME280;10179;42.640;23.312;2023-12-07T08:24:11;93462.44;;;10.45;55.11
20037;BME280;10179;42.640;23.312;2023-12-07T08:26:38;93470.22;;;10.40;55.46
20037;BME280;10179;42.640;23.312;2023-12-07T08:29:04;93480.81;;;10.33;55.39
20037;BME280;10179;42.640;23.312;2023-12-07T08:31:29;93206.47;;;8.43;55.19
20037;BME280;10179;42.640;23.312;2023-12-07T08:33:55;93376.84;;;9.43;55.84
20037;BME280;10179;42.640;23.312;2023-12-07T08:36:20;93479.59;;;9.94;56.21
20037;BME280;10179;42.640;23.312;2023-12-07T08:38:46;93476.28;;;9.87;56.55
20037;BME280;10179;42.640;23.312;2023-12-07T08:41:11;93458.19;;;9.67;56.80
20037;BME280;10179;42.640;23.312;2023-12-07T08:43:36;93419.47;;;9.39;56.81
20037;BME280;10179;42.640;23.312;2023-12-07T08:46:02;93478.84;;;9.75;56.70
20037;BME280;10179;42.640;23.312;2023-12-07T08:48:28;93485.78;;;9.69;56.46
20037;BME280;10179;42.640;23.312;2023-12-07T08:50:54;93439.84;;;9.37;56.55
20037;BME280;10179;42.640;23.312;2023-12-07T08:53:19;93426.66;;;9.13;56.68
20037;BME280;10179;42.640;23.312;2023-12-07T08:55:45;93487.56;;;9.57;57.19
20037;BME280;10179;42.640;23.312;2023-12-07T08:58:10;93495.06;;;9.53;56.90
20037;BME280;10179;42.640;23.312;2023-12-07T09:00:37;93491.06;;;9.51;56.88
20037;BME280;10179;42.640;23.312;2023-12-07T09:03:03;93409.66;;;8.86;56.77
20037;BME280;10179;42.640;23.312;2023-12-07T09:05:29;93450.38;;;9.18;56.99
20037;BME280;10179;42.640;23.312;2023-12-07T09:07:55;93381.75;;;8.61;56.88
20037;BME280;10179;42.640;23.312;2023-12-07T09:10:22;93484.28;;;9.31;56.72
20037;BME280;10179;42.640;23.312;2023-12-07T09:12:47;93376.22;;;8.51;57.17
20037;BME280;10179;42.640;23.312;2023-12-07T09:15:13;93487.31;;;9.28;57.21
20037;BME280;10179;42.640;23.312;2023-12-07T09:17:39;93487.75;;;9.25;57.41
20037;BME280;10179;42.640;23.312;2023-12-07T09:20:06;93470.25;;;9.07;57.18
20037;BME280;10179;42.640;23.312;2023-12-07T09:22:32;93472.38;;;8.99;57.35
20037;BME280;10179;42.640;23.312;2023-12-07T09:24:59;93477.44;;;9.12;57.27
20037;BME280;10179;42.640;23.312;2023-12-07T09:27:24;93492.88;;;9.20;57.21
20037;BME280;10179;42.640;23.312;2023-12-07T09:29:49;93437.75;;;8.78;57.03
20037;BME280;10179;42.640;23.312;2023-12-07T09:32:16;93495.50;;;9.20;57.05
20037;BME280;10179;42.640;23.312;2023-12-07T09:34:41;93460.63;;;9.01;56.68
20037;BME280;10179;42.640;23.312;2023-12-07T09:37:10;93494.34;;;9.16;56.29
20037;BME280;10179;42.640;23.312;2023-12-07T09:39:36;93273.44;;;7.70;56.35
20037;BME280;10179;42.640;23.312;2023-12-07T09:42:02;93490.41;;;9.07;56.44
20037;BME280;10179;42.640;23.312;2023-12-07T09:44:28;93220.56;;;7.31;56.48
20037;BME280;10179;42.640;23.312;2023-12-07T09:46:53;93494.06;;;9.06;56.02
20037;BME280;10179;42.640;23.312;2023-12-07T09:49:20;93495.72;;;9.00;56.27
20037;BME280;10179;42.640;23.312;2023-12-07T09:51:46;93484.88;;;8.97;56.43
20037;BME280;10179;42.640;23.312;2023-12-07T09:54:12;93163.31;;;6.86;56.42
20037;BME280;10179;42.640;23.312;2023-12-07T09:56:38;93437.28;;;8.63;56.01
20037;BME280;10179;42.640;23.312;2023-12-07T09:59:04;93406.16;;;8.36;56.06
20037;BME280;10179;42.640;23.312;2023-12-07T10:01:30;93431.50;;;8.43;55.61
20037;BME280;10179;42.640;23.312;2023-12-07T10:04:24;93486.41;;;8.86;56.11
20037;BME280;10179;42.640;23.312;2023-12-07T10:06:51;93490.25;;;8.83;56.07
20037;BME280;10179;42.640;23.312;2023-12-07T10:09:17;93497.53;;;8.81;55.50
20037;BME280;10179;42.640;23.312;2023-12-07T10:11:44;93430.00;;;8.28;55.30
20037;BME280;10179;42.640;23.312;2023-12-07T10:14:10;93500.56;;;8.60;55.65
20037;BME280;10179;42.640;23.312;2023-12-07T10:16:36;93406.38;;;8.10;55.59
20037;BME280;10179;42.640;23.312;2023-12-07T10:19:14;93492.84;;;8.65;55.42
20037;BME280;10179;42.640;23.312;2023-12-07T10:21:43;93494.16;;;8.56;55.61
20037;BME280;10179;42.640;23.312;2023-12-07T10:24:09;93402.53;;;7.94;55.55
20037;BME280;10179;42.640;23.312;2023-12-07T10:26:35;93344.97;;;7.51;55.77
20037;BME280;10179;42.640;23.312;2023-12-07T10:29:06;93492.66;;;8.42;55.81
20037;BME280;10179;42.640;23.312;2023-12-07T10:31:32;93468.09;;;8.18;55.90
20037;BME280;10179;42.640;23.312;2023-12-07T10:34:00;93436.88;;;7.98;56.26
20037;BME280;10179;42.640;23.312;2023-12-07T10:36:26;93494.38;;;8.29;56.56
20037;BME280;10179;42.640;23.312;2023-12-07T10:38:53;93484.00;;;8.16;56.50
20037;BME280;10179;42.640;23.312;2023-12-07T10:41:20;93349.38;;;7.25;56.36
20037;BME280;10179;42.640;23.312;2023-12-07T10:43:57;93459.03;;;7.95;56.27
20037;BME280;10179;42.640;23.312;2023-12-07T10:46:24;93397.09;;;7.39;56.55
20037;BME280;10179;42.640;23.312;2023-12-07T10:48:59;93460.19;;;7.74;56.42
20037;BME280;10179;42.640;23.312;2023-12-07T10:51:42;93492.00;;;7.96;57.13
20037;BME280;10179;42.640;23.312;2023-12-07T10:54:14;93473.84;;;7.76;57.06
20037;BME280;10179;42.640;23.312;2023-12-07T10:56:45;93363.41;;;6.99;57.13
20037;BME280;10179;42.640;23.312;2023-12-07T10:59:12;93428.66;;;7.37;57.11
20037;BME280;10179;42.640;23.312;2023-12-07T11:01:39;93477.38;;;7.57;57.83
20037;BME280;10179;42.640;23.312;2023-12-07T11:04:05;93488.34;;;7.72;58.01
20037;BME280;10179;42.640;23.312;2023-12-07T11:06:31;93434.88;;;7.36;58.25
20037;BME280;10179;42.640;23.312;2023-12-07T11:09:00;93491.97;;;7.71;57.89
20037;BME280;10179;42.640;23.312;2023-12-07T11:11:40;93417.09;;;7.27;58.13
20037;BME280;10179;42.640;23.312;2023-12-07T11:14:07;93481.16;;;7.61;57.57
20037;BME280;10179;42.640;23.312;2023-12-07T11:16:38;93433.91;;;7.37;57.43
20037;BME280;10179;42.640;23.312;2023-12-07T11:19:05;93484.75;;;7.67;57.29
20037;BME280;10179;42.640;23.312;2023-12-07T11:21:30;93396.28;;;7.07;57.25
20037;BME280;10179;42.640;23.312;2023-12-07T11:23:59;93502.41;;;7.71;57.40
20037;BME280;10179;42.640;23.312;2023-12-07T11:26:25;93508.06;;;7.68;57.45
20037;BME280;10179;42.640;23.312;2023-12-07T11:28:52;93482.16;;;7.67;57.60
20037;BME280;10179;42.640;23.312;2023-12-07T11:31:19;93491.16;;;7.71;57.61
20037;BME280;10179;42.640;23.312;2023-12-07T11:33:45;93482.72;;;7.69;57.29
20037;BME280;10179;42.640;23.312;2023-12-07T11:36:12;93354.41;;;6.95;57.71
20037;BME280;10179;42.640;23.312;2023-12-07T11:38:39;93402.03;;;7.22;57.58
20037;BME280;10179;42.640;23.312;2023-12-07T11:41:23;93489.94;;;7.73;57.92
20037;BME280;10179;42.640;23.312;2023-12-07T11:43:50;93376.44;;;7.06;57.93
20037;BME280;10179;42.640;23.312;2023-12-07T11:46:18;93420.63;;;7.39;57.31
20037;BME280;10179;42.640;23.312;2023-12-07T11:48:48;93474.28;;;7.73;57.89
20037;BME280;10179;42.640;23.312;2023-12-07T11:51:15;93390.41;;;7.18;58.11
20037;BME280;10179;42.640;23.312;2023-12-07T11:53:41;93474.28;;;7.73;58.31
20037;BME280;10179;42.640;23.312;2023-12-07T11:56:08;93406.00;;;7.31;58.55
20037;BME280;10179;42.640;23.312;2023-12-07T11:58:36;93474.84;;;7.75;58.43
20037;BME280;10179;42.640;23.312;2023-12-07T12:01:02;93414.59;;;7.38;58.59
20037;BME280;10179;42.640;23.312;2023-12-07T12:03:29;93444.00;;;7.59;58.97
20037;BME280;10179;42.640;23.312;2023-12-07T12:05:55;93483.44;;;7.82;59.01
20037;BME280;10179;42.640;23.312;2023-12-07T12:08:21;93479.03;;;7.83;58.79
20037;BME280;10179;42.640;23.312;2023-12-07T12:10:47;93469.03;;;7.73;58.76
20037;BME280;10179;42.640;23.312;2023-12-07T12:13:15;93394.38;;;7.27;58.49
20037;BME280;10179;42.640;23.312;2023-12-07T12:15:41;93475.03;;;7.80;58.23
20037;BME280;10179;42.640;23.312;2023-12-07T12:18:07;93472.91;;;7.64;58.78
20037;BME280;10179;42.640;23.312;2023-12-07T12:20:33;93471.81;;;7.78;59.24
20037;BME280;10179;42.640;23.312;2023-12-07T12:22:59;93403.38;;;7.31;59.05
20037;BME280;10179;42.640;23.312;2023-12-07T12:25:26;93467.00;;;7.75;59.01
20037;BME280;10179;42.640;23.312;2023-12-07T12:27:55;93475.06;;;7.74;59.28
20037;BME280;10179;42.640;23.312;2023-12-07T12:30:21;93448.25;;;7.53;58.82
20037;BME280;10179;42.640;23.312;2023-12-07T12:32:50;93480.94;;;7.69;58.85
20037;BME280;10179;42.640;23.312;2023-12-07T12:35:19;93473.72;;;7.64;58.78
20037;BME280;10179;42.640;23.312;2023-12-07T12:37:45;93319.41;;;6.64;58.89
20037;BME280;10179;42.640;23.312;2023-12-07T12:40:12;93451.13;;;7.45;59.15
20037;BME280;10179;42.640;23.312;2023-12-07T12:42:44;93469.53;;;7.57;59.45
20037;BME280;10179;42.640;23.312;2023-12-07T12:45:10;93483.03;;;7.54;59.26
20037;BME280;10179;42.640;23.312;2023-12-07T12:47:39;93483.66;;;7.49;59.13
20037;BME280;10179;42.640;23.312;2023-12-07T12:50:09;93418.63;;;7.03;58.95
20037;BME280;10179;42.640;23.312;2023-12-07T12:52:34;93482.91;;;7.42;59.18
20037;BME280;10179;42.640;23.312;2023-12-07T12:55:01;93482.50;;;7.38;59.29